Time;durP1;ratioP1;P1;durP2;ratioP2;P2;SDS_P1;SDS_P2;PMS_P1;PMS_P2;Temp;Humidity;BMP_temperature;BMP_pressure;BME280_temperature;BME280_humidity;BME280_pressure;Samples;Min_cycle;Max_cycle;Signal;HPM_P1;HPM_P2
2023/09/13 00:02:19;;;;;;;7.22;3.65;;;18.80;96.40;18.90;100094.00;;;;4989017;28;93787;-64
2023/09/13 00:04:44;;;;;;;4.07;3.35;;;18.80;96.60;18.80;100094.00;;;;4990622;28;114221;-65
2023/09/13 00:07:10;;;;;;;4.03;3.10;;;18.70;96.70;18.80;100087.00;;;;4988883;27;113859;-65
2023/09/13 00:09:40;;;;;;;5.35;3.78;;;18.70;96.90;18.80;100084.00;;;;4986672;28;104695;-65
2023/09/13 00:12:08;;;;;;;6.78;4.05;;;18.60;96.90;18.70;100087.00;;;;4989322;27;92139;-65
2023/09/13 00:14:33;;;;;;;4.03;3.63;;;18.60;97.10;18.70;100085.00;;;;4993532;27;93789;-66
2023/09/13 00:16:59;;;;;;;4.40;3.75;;;18.60;97.30;18.70;100087.00;;;;4979781;28;121652;-64
2023/09/13 00:19:27;;;;;;;6.30;3.83;;;18.60;97.40;18.70;100082.00;;;;4991017;27;109101;-66
2023/09/13 00:21:53;;;;;;;3.85;3.55;;;18.50;97.50;18.70;100081.00;;;;4992974;27;93118;-64
2023/09/13 00:24:19;;;;;;;5.22;3.78;;;18.50;97.70;18.70;100079.00;;;;4993840;27;94428;-64
2023/09/13 00:26:45;;;;;;;4.65;3.60;;;18.60;97.70;18.70;100076.00;;;;4988033;27;122925;-65
2023/09/13 00:29:10;;;;;;;5.57;3.50;;;18.60;97.80;18.70;100067.00;;;;4977714;27;109848;-66
2023/09/13 00:31:36;;;;;;;5.50;3.50;;;18.60;97.90;18.70;100083.00;;;;4985218;27;108893;-64
2023/09/13 00:34:02;;;;;;;6.35;3.55;;;18.50;98.00;18.60;100065.00;;;;4988870;27;122634;-65
2023/09/13 00:36:27;;;;;;;6.43;4.53;;;18.50;98.20;18.60;100076.00;;;;4986452;28;123581;-65
2023/09/13 00:38:53;;;;;;;7.25;4.78;;;18.50;98.40;18.60;100065.00;;;;4987758;27;109529;-64
2023/09/13 00:41:19;;;;;;;6.10;4.28;;;18.60;98.60;18.60;100059.00;;;;4983378;27;109006;-63
2023/09/13 00:43:45;;;;;;;6.35;4.07;;;18.40;98.80;18.50;100062.00;;;;4986038;27;94555;-64
2023/09/13 00:46:11;;;;;;;4.18;3.78;;;18.40;98.90;18.50;100061.00;;;;4979134;28;94485;-64
2023/09/13 00:48:37;;;;;;;3.50;3.08;;;18.40;99.10;18.50;100059.00;;;;4967381;28;110360;-64
2023/09/13 00:51:03;;;;;;;4.85;3.25;;;18.40;99.10;18.50;100056.00;;;;4973805;28;107249;-64
2023/09/13 00:53:31;;;;;;;3.47;2.78;;;18.40;99.20;18.50;100057.00;;;;4986199;27;93505;-64
2023/09/13 00:55:57;;;;;;;4.22;3.83;;;18.40;99.20;18.50;100065.00;;;;4961650;28;93686;-65
2023/09/13 00:58:24;;;;;;;4.88;3.25;;;18.40;99.20;18.50;100073.00;;;;4986195;28;93205;-65
2023/09/13 01:00:55;;;;;;;3.67;3.38;;;18.40;99.30;18.50;100080.00;;;;4972298;28;92208;-63
2023/09/13 01:03:22;;;;;;;11.43;4.90;;;18.40;99.30;18.50;100081.00;;;;4988278;27;93458;-64
2023/09/13 01:05:54;;;;;;;5.28;4.00;;;18.40;99.40;18.50;100081.00;;;;4987260;27;93728;-65
2023/09/13 01:08:21;;;;;;;5.32;3.92;;;18.40;99.60;18.50;100082.00;;;;4968401;28;94504;-66
2023/09/13 01:10:47;;;;;;;4.25;3.65;;;18.40;99.70;18.50;100084.00;;;;4977284;28;93188;-64
2023/09/13 01:13:14;;;;;;;6.07;5.25;;;18.40;99.80;18.50;100089.00;;;;4990216;27;93715;-64
2023/09/13 01:15:51;;;;;;;3.92;3.63;;;18.40;99.90;18.60;100106.00;;;;4993647;27;103820;-65
2023/09/13 01:18:30;;;;;;;6.53;3.90;;;18.40;99.90;18.60;100113.00;;;;4968580;28;93633;-64
2023/09/13 01:21:37;;;;;;;6.75;4.38;;;18.40;99.90;18.60;100125.00;;;;4972923;28;92795;-64
2023/09/13 01:24:47;;;;;;;5.50;4.22;;;18.50;99.90;18.70;100222.00;;;;4992153;27;93598;-66
2023/09/13 01:27:33;;;;;;;7.65;4.55;;;18.50;99.90;18.70;100140.00;;;;4980131;27;99915;-65
2023/09/13 01:30:00;;;;;;;6.80;5.53;;;18.60;99.90;18.80;100206.00;;;;4972101;28;102084;-66
2023/09/13 01:32:26;;;;;;;4.10;3.65;;;18.60;99.90;18.90;100168.00;;;;4968534;28;93168;-67
2023/09/13 01:34:51;;;;;;;4.95;4.13;;;18.70;99.90;18.90;100192.00;;;;4979639;27;123102;-66
2023/09/13 01:37:18;;;;;;;6.15;4.80;;;18.70;99.90;19.00;100171.00;;;;4989049;27;122997;-66
2023/09/13 01:39:44;;;;;;;4.32;3.47;;;18.80;99.90;19.10;100177.00;;;;4972533;28;110014;-66
2023/09/13 01:42:11;;;;;;;5.80;3.67;;;18.90;99.90;19.10;100160.00;;;;4996530;28;107670;-66
2023/09/13 01:44:40;;;;;;;4.20;3.75;;;19.00;99.90;19.20;100162.00;;;;4968587;28;122772;-67
2023/09/13 01:47:08;;;;;;;4.57;3.78;;;19.00;99.90;19.30;100171.00;;;;4971409;28;92866;-65
2023/09/13 01:49:38;;;;;;;10.05;4.07;;;19.10;99.90;19.30;100164.00;;;;4980160;28;93243;-64
2023/09/13 01:52:05;;;;;;;3.95;3.55;;;19.10;99.90;19.40;100156.00;;;;4992907;28;94194;-66
2023/09/13 01:54:35;;;;;;;5.53;4.28;;;19.20;99.90;19.40;100158.00;;;;4992947;27;93974;-64
2023/09/13 01:57:01;;;;;;;5.30;3.95;;;19.30;99.90;19.50;100146.00;;;;4991837;27;94067;-65
2023/09/13 01:59:27;;;;;;;7.47;4.32;;;19.30;99.90;19.50;100140.00;;;;4994508;27;94069;-66
2023/09/13 02:01:52;;;;;;;5.90;4.50;;;19.10;99.90;19.50;100128.00;;;;4989463;27;107907;-66
2023/09/13 02:04:18;;;;;;;5.35;4.03;;;19.40;99.90;19.50;100122.00;;;;4990465;28;108662;-66
2023/09/13 02:06:44;;;;;;;5.03;3.80;;;19.40;99.90;19.50;100134.00;;;;4993788;27;121142;-66
2023/09/13 02:09:10;;;;;;;6.68;3.78;;;19.40;99.90;19.60;100120.00;;;;4990477;27;110473;-66
2023/09/13 02:11:36;;;;;;;3.85;3.55;;;19.40;99.90;19.60;100119.00;;;;4990844;27;92766;-64
2023/09/13 02:14:02;;;;;;;9.98;3.83;;;19.40;99.90;19.50;100115.00;;;;4991906;28;120949;-65
2023/09/13 02:16:28;;;;;;;3.72;3.38;;;19.40;99.90;19.50;100118.00;;;;4989420;28;93695;-65
2023/09/13 02:18:54;;;;;;;5.35;3.70;;;19.40;99.90;19.60;100115.00;;;;4988944;27;94038;-65
2023/09/13 02:21:19;;;;;;;9.18;4.40;;;19.40;99.90;19.60;100112.00;;;;4992295;28;99033;-65
2023/09/13 02:23:45;;;;;;;4.63;3.80;;;19.40;99.90;19.60;100101.00;;;;4980157;27;123256;-66
2023/09/13 02:26:24;;;;;;;4.97;3.97;;;19.40;99.90;19.50;100089.00;;;;4991356;28;107317;-65
2023/09/13 02:28:51;;;;;;;4.35;3.90;;;19.40;99.90;19.60;100080.00;;;;4972710;27;92890;-65
2023/09/13 02:31:27;;;;;;;4.25;3.70;;;19.40;99.90;19.50;100085.00;;;;4976909;28;93106;-65
2023/09/13 02:33:54;;;;;;;6.10;4.40;;;19.40;99.90;19.50;100069.00;;;;4990217;28;92973;-66
2023/09/13 02:36:20;;;;;;;13.27;5.03;;;19.40;99.90;19.50;100066.00;;;;4989917;28;94213;-65
2023/09/13 02:38:46;;;;;;;4.88;3.70;;;19.40;99.90;19.50;100073.00;;;;4990811;28;92945;-64
2023/09/13 02:41:11;;;;;;;4.55;3.80;;;19.40;99.90;19.50;100064.00;;;;4987966;28;107534;-64
2023/09/13 02:43:41;;;;;;;4.15;3.65;;;19.30;99.90;19.40;100040.00;;;;4990158;28;93530;-66
2023/09/13 02:46:07;;;;;;;6.47;4.78;;;19.30;99.90;19.30;100031.00;;;;4979141;27;93222;-65
2023/09/13 02:48:33;;;;;;;4.90;4.47;;;19.20;99.90;19.20;100030.00;;;;4989082;27;95436;-64
2023/09/13 02:50:59;;;;;;;6.55;4.10;;;19.00;99.90;19.20;100084.00;;;;4989629;28;93045;-64
2023/09/13 02:53:25;;;;;;;6.10;3.72;;;19.00;99.90;19.10;100154.00;;;;4986772;28;94102;-65
2023/09/13 02:55:50;;;;;;;6.40;3.83;;;19.00;99.90;19.00;100168.00;;;;4988335;27;115724;-65
2023/09/13 02:58:16;;;;;;;6.25;4.22;;;18.90;99.90;18.90;100176.00;;;;4986244;28;92973;-69
2023/09/13 03:00:43;;;;;;;5.88;4.22;;;18.80;99.90;18.60;100186.00;;;;4979886;28;109283;-70
2023/09/13 03:03:09;;;;;;;4.88;4.18;;;18.60;99.90;18.30;100214.00;;;;4972847;28;94338;-72
2023/09/13 03:05:36;;;;;;;5.60;4.38;;;18.40;99.90;18.10;100217.00;;;;4992741;28;113539;-72
2023/09/13 03:08:03;;;;;;;5.75;4.47;;;18.10;99.90;18.00;100196.00;;;;4973068;28;93318;-65
2023/09/13 03:10:29;;;;;;;6.28;4.82;;;18.00;99.90;17.90;100167.00;;;;4992796;27;97979;-64
2023/09/13 03:12:54;;;;;;;8.20;5.18;;;17.80;99.90;17.80;100159.00;;;;4987981;28;123956;-65
2023/09/13 03:15:20;;;;;;;5.03;4.47;;;17.70;99.90;17.70;100135.00;;;;4990908;28;123651;-67
2023/09/13 03:17:45;;;;;;;8.60;5.03;;;17.70;99.90;17.70;100129.00;;;;4982066;27;110411;-68
2023/09/13 03:20:12;;;;;;;6.22;4.47;;;17.60;99.90;17.60;100109.00;;;;4988005;27;108419;-67
2023/09/13 03:22:37;;;;;;;4.95;4.13;;;17.50;99.90;17.60;100086.00;;;;4974620;28;122403;-67
2023/09/13 03:25:06;;;;;;;8.35;4.78;;;17.50;99.90;17.60;100083.00;;;;4989180;28;123608;-66
2023/09/13 03:27:32;;;;;;;9.35;5.80;;;17.50;99.90;17.60;100108.00;;;;4993530;27;92776;-66
2023/09/13 03:29:59;;;;;;;6.57;5.28;;;17.50;99.90;17.60;100091.00;;;;4993073;27;107934;-65
2023/09/13 03:32:24;;;;;;;8.68;5.20;;;17.50;99.90;17.60;100095.00;;;;4996596;28;96486;-66
2023/09/13 03:34:51;;;;;;;10.35;5.55;;;17.50;99.90;17.60;100101.00;;;;4996312;28;121403;-67
2023/09/13 03:37:18;;;;;;;9.35;5.68;;;17.50;99.90;17.70;100092.00;;;;4992826;28;94360;-66
2023/09/13 03:39:43;;;;;;;8.10;4.15;;;17.50;99.90;17.70;100080.00;;;;4981052;28;94504;-64
2023/09/13 03:42:09;;;;;;;5.65;4.32;;;17.50;99.90;17.70;100079.00;;;;4989019;28;113858;-65
2023/09/13 03:44:35;;;;;;;6.35;4.20;;;17.60;99.90;17.70;100089.00;;;;4989614;27;114595;-65
2023/09/13 03:47:00;;;;;;;7.28;6.22;;;17.60;99.90;17.70;100110.00;;;;4990338;28;110502;-64
2023/09/13 03:49:26;;;;;;;6.63;4.90;;;17.60;99.90;17.70;100105.00;;;;4992721;27;109293;-64
2023/09/13 03:51:52;;;;;;;8.93;5.72;;;17.60;99.90;17.70;100099.00;;;;4989914;28;121682;-64
2023/09/13 03:54:17;;;;;;;5.72;5.07;;;17.60;99.90;17.70;100096.00;;;;4991296;27;92978;-64
2023/09/13 03:56:43;;;;;;;5.85;4.72;;;17.60;99.90;17.70;100094.00;;;;4989087;28;106462;-64
2023/09/13 03:59:09;;;;;;;7.75;5.38;;;17.60;99.90;17.70;100108.00;;;;4991378;28;106457;-63
2023/09/13 04:01:34;;;;;;;5.40;4.38;;;17.50;99.90;17.60;100098.00;;;;4989827;27;108523;-63
2023/09/13 04:04:00;;;;;;;4.60;3.75;;;17.50;99.90;17.60;100110.00;;;;4990021;27;94402;-64
2023/09/13 04:06:26;;;;;;;6.25;4.68;;;17.50;99.90;17.60;100099.00;;;;4990329;28;109585;-65
2023/09/13 04:08:51;;;;;;;6.88;5.10;;;17.50;99.90;17.60;100093.00;;;;4988221;27;107831;-65
2023/09/13 04:11:17;;;;;;;4.93;3.97;;;17.50;99.90;17.60;100083.00;;;;4983052;28;93126;-64
2023/09/13 04:13:43;;;;;;;6.90;6.13;;;17.50;99.90;17.60;100074.00;;;;4988915;28;122315;-65
2023/09/13 04:16:15;;;;;;;7.78;5.28;;;17.50;99.90;17.60;100078.00;;;;4991723;28;92894;-64
2023/09/13 04:18:41;;;;;;;5.88;4.85;;;17.50;99.90;17.60;100084.00;;;;4991733;27;92160;-65
2023/09/13 04:21:06;;;;;;;8.18;5.72;;;17.50;99.90;17.60;100092.00;;;;4970240;28;120728;-65
2023/09/13 04:23:32;;;;;;;10.52;5.25;;;17.50;99.90;17.60;100093.00;;;;4985796;27;121648;-65
2023/09/13 04:25:58;;;;;;;8.90;5.85;;;17.50;99.90;17.60;100094.00;;;;4987600;27;110114;-65
2023/09/13 04:28:23;;;;;;;5.53;3.80;;;17.50;99.90;17.60;100094.00;;;;4983434;27;109043;-65
2023/09/13 04:30:49;;;;;;;5.22;4.45;;;17.50;99.90;17.60;100103.00;;;;4988624;27;94041;-65
2023/09/13 04:33:15;;;;;;;5.85;4.07;;;17.50;99.90;17.60;100096.00;;;;4984323;27;93520;-65
2023/09/13 04:35:41;;;;;;;5.53;4.10;;;17.50;99.90;17.60;100093.00;;;;4990517;27;93093;-65
2023/09/13 04:38:06;;;;;;;5.85;4.05;;;17.50;99.90;17.60;100097.00;;;;4986942;27;107816;-65
2023/09/13 04:40:32;;;;;;;10.18;5.20;;;17.50;99.90;17.60;100096.00;;;;4991458;27;121427;-65
2023/09/13 04:43:04;;;;;;;4.72;3.88;;;17.50;99.90;17.60;100099.00;;;;4989970;27;93936;-66
2023/09/13 04:45:30;;;;;;;9.90;4.72;;;17.50;99.90;17.60;100097.00;;;;4986649;27;95178;-65
2023/09/13 04:47:55;;;;;;;6.68;4.57;;;17.50;99.90;17.60;100099.00;;;;4994558;28;108823;-64
2023/09/13 04:50:21;;;;;;;5.20;4.07;;;17.50;99.90;17.60;100099.00;;;;4991555;27;124801;-65
2023/09/13 04:52:47;;;;;;;7.32;4.28;;;17.50;99.90;17.70;100106.00;;;;4993040;28;121077;-64
2023/09/13 04:55:12;;;;;;;10.15;4.20;;;17.50;99.90;17.70;100114.00;;;;4991870;27;108181;-64
2023/09/13 04:57:38;;;;;;;6.72;4.82;;;17.60;99.90;17.70;100115.00;;;;4996381;28;92933;-65
2023/09/13 05:00:11;;;;;;;6.15;4.88;;;17.60;99.90;17.70;100109.00;;;;4995251;27;94503;-65
2023/09/13 05:02:40;;;;;;;5.53;4.75;;;17.60;99.90;17.70;100117.00;;;;4994450;28;93539;-65
2023/09/13 05:05:07;;;;;;;6.80;4.95;;;17.60;99.90;17.70;100124.00;;;;4995267;27;93088;-64
2023/09/13 05:07:32;;;;;;;5.10;4.25;;;17.60;99.90;17.70;100120.00;;;;5000499;27;92149;-64
2023/09/13 05:09:58;;;;;;;6.32;4.45;;;17.60;99.90;17.70;100110.00;;;;4998435;28;103668;-65
2023/09/13 05:12:24;;;;;;;8.95;5.10;;;17.60;99.90;17.70;100106.00;;;;4997347;27;92887;-65
2023/09/13 05:14:50;;;;;;;7.93;5.00;;;17.60;99.90;17.70;100123.00;;;;4996524;27;110310;-65
2023/09/13 05:17:15;;;;;;;5.05;4.07;;;17.60;99.90;17.70;100109.00;;;;4990524;28;99625;-67
2023/09/13 05:19:41;;;;;;;6.97;4.10;;;17.60;99.90;17.80;100114.00;;;;4995031;28;94453;-64
2023/09/13 05:22:07;;;;;;;7.45;4.93;;;17.60;99.90;17.80;100104.00;;;;4991624;28;95533;-66
2023/09/13 05:24:32;;;;;;;8.38;3.95;;;17.70;99.90;17.80;100112.00;;;;4991454;28;110896;-65
2023/09/13 05:27:04;;;;;;;5.72;3.95;;;17.70;99.90;17.80;100114.00;;;;4982163;28;109169;-64
2023/09/13 05:29:30;;;;;;;7.35;5.25;;;17.70;99.90;17.90;100116.00;;;;4990357;27;94317;-64
2023/09/13 05:31:55;;;;;;;5.82;3.55;;;17.80;99.90;17.90;100118.00;;;;4990406;27;123382;-65
2023/09/13 05:34:22;;;;;;;6.60;4.70;;;17.80;99.90;18.00;100119.00;;;;4991510;27;93356;-64
2023/09/13 05:36:48;;;;;;;6.38;4.72;;;17.80;99.90;18.00;100116.00;;;;4991044;28;110094;-64
2023/09/13 05:39:14;;;;;;;6.22;4.00;;;17.90;99.90;18.10;100127.00;;;;4988534;27;123849;-64
2023/09/13 05:41:49;;;;;;;6.90;4.35;;;18.00;99.90;18.20;100127.00;;;;4989890;27;123565;-64
2023/09/13 05:44:20;;;;;;;7.10;4.65;;;18.00;99.90;18.20;100136.00;;;;4992617;28;92953;-64
2023/09/13 05:46:46;;;;;;;6.60;5.00;;;18.10;99.90;18.30;100130.00;;;;4994491;27;93266;-65
2023/09/13 05:49:12;;;;;;;5.88;4.57;;;18.20;99.90;18.40;100138.00;;;;4991912;27;93371;-64
2023/09/13 05:51:37;;;;;;;5.47;4.32;;;18.20;99.90;18.40;100137.00;;;;4992529;27;122948;-65
2023/09/13 05:54:03;;;;;;;6.00;4.32;;;18.30;99.90;18.50;100133.00;;;;4993893;28;110402;-64
2023/09/13 05:56:29;;;;;;;6.13;4.82;;;18.40;99.90;18.60;100137.00;;;;4994124;27;92210;-64
2023/09/13 05:58:55;;;;;;;7.78;4.78;;;18.40;99.90;18.60;100142.00;;;;4993452;27;93103;-64
2023/09/13 06:01:22;;;;;;;5.80;3.80;;;18.50;99.90;18.70;100148.00;;;;4982595;27;122732;-64
2023/09/13 06:03:48;;;;;;;6.15;4.13;;;18.50;99.90;18.80;100147.00;;;;4990909;27;94026;-64
2023/09/13 06:06:13;;;;;;;5.40;4.25;;;18.60;99.90;18.80;100147.00;;;;4987819;27;108761;-64
2023/09/13 06:08:39;;;;;;;5.90;4.25;;;18.70;99.90;18.90;100151.00;;;;4987331;27;122263;-64
2023/09/13 06:11:05;;;;;;;5.63;5.07;;;18.70;99.90;18.90;100147.00;;;;4987454;27;94174;-64
2023/09/13 06:13:30;;;;;;;7.30;4.22;;;18.80;99.90;19.00;100149.00;;;;4989146;27;110461;-64
2023/09/13 06:15:56;;;;;;;4.72;4.25;;;18.80;99.90;19.00;100154.00;;;;4990358;28;112932;-65
2023/09/13 06:18:23;;;;;;;5.03;4.05;;;18.90;99.90;19.10;100146.00;;;;4990296;27;122989;-65
2023/09/13 06:20:49;;;;;;;6.15;4.53;;;18.90;99.90;19.10;100147.00;;;;4989827;28;93698;-65
2023/09/13 06:23:38;;;;;;;5.55;4.88;;;19.00;99.90;19.20;100148.00;;;;4989156;28;109860;-66
2023/09/13 06:26:04;;;;;;;5.68;4.85;;;19.10;99.90;19.20;100159.00;;;;4969112;27;93659;-66
2023/09/13 06:28:31;;;;;;;6.88;4.78;;;19.10;99.90;19.30;100157.00;;;;4988725;27;94337;-66
2023/09/13 06:30:58;;;;;;;5.78;3.75;;;19.20;99.90;19.30;100159.00;;;;4987701;27;93964;-66
2023/09/13 06:33:25;;;;;;;6.32;3.83;;;19.20;99.90;19.30;100161.00;;;;4990898;27;93031;-67
2023/09/13 06:35:51;;;;;;;5.60;4.15;;;19.20;99.90;19.30;100164.00;;;;4987893;28;101552;-66
2023/09/13 06:38:17;;;;;;;5.43;4.03;;;19.20;99.90;19.40;100169.00;;;;4976085;27;93534;-66
2023/09/13 06:40:43;;;;;;;8.20;4.65;;;19.20;99.90;19.40;100168.00;;;;4988533;27;119488;-66
2023/09/13 06:43:10;;;;;;;4.90;3.17;;;19.30;99.90;19.50;100171.00;;;;4993040;27;93231;-66
2023/09/13 06:45:36;;;;;;;4.30;3.58;;;19.40;99.90;19.60;100169.00;;;;4991014;27;92291;-66
2023/09/13 06:48:02;;;;;;;8.63;4.20;;;19.50;99.90;19.80;100166.00;;;;4990346;27;94135;-66
2023/09/13 06:50:28;;;;;;;6.28;4.38;;;19.60;99.90;20.00;100174.00;;;;4990149;27;93426;-66
2023/09/13 06:52:53;;;;;;;6.55;3.85;;;19.80;99.90;20.20;100176.00;;;;4987353;27;110400;-66
2023/09/13 06:55:19;;;;;;;4.55;3.83;;;20.00;99.90;20.30;100173.00;;;;4991856;27;109099;-67
2023/09/13 06:57:48;;;;;;;5.32;4.40;;;20.20;99.90;20.50;100177.00;;;;4989148;27;93093;-66
2023/09/13 07:00:14;;;;;;;4.70;3.70;;;20.30;99.90;20.60;100174.00;;;;4988865;28;93623;-65
2023/09/13 07:02:40;;;;;;;4.35;3.70;;;20.50;99.90;20.80;100173.00;;;;4988604;27;92901;-65
2023/09/13 07:05:06;;;;;;;5.53;4.18;;;20.60;99.90;21.00;100177.00;;;;4990545;27;108179;-66
2023/09/13 07:07:31;;;;;;;5.25;4.07;;;20.80;99.90;21.30;100185.00;;;;4993122;27;114043;-65
2023/09/13 07:09:57;;;;;;;5.28;3.90;;;21.10;99.90;21.40;100184.00;;;;4990274;28;109323;-65
2023/09/13 07:12:28;;;;;;;6.60;3.47;;;21.30;99.90;21.40;100186.00;;;;4975600;28;110257;-66
2023/09/13 07:14:54;;;;;;;4.40;4.05;;;21.40;99.90;21.50;100195.00;;;;4989601;27;93164;-66
2023/09/13 07:17:19;;;;;;;4.75;3.70;;;21.40;99.90;21.50;100207.00;;;;4990113;27;100344;-66
2023/09/13 07:19:49;;;;;;;4.32;3.47;;;21.40;99.90;21.50;100208.00;;;;4988946;27;123943;-67
2023/09/13 07:22:14;;;;;;;6.35;3.33;;;21.40;99.90;21.50;100209.00;;;;4991111;27;92898;-65
2023/09/13 07:24:40;;;;;;;3.15;2.45;;;21.40;99.90;21.60;100210.00;;;;4988225;27;107321;-66
2023/09/13 07:27:06;;;;;;;4.32;2.95;;;21.40;99.90;21.70;100222.00;;;;4984488;27;121871;-66
2023/09/13 07:29:31;;;;;;;6.75;3.95;;;21.50;99.90;21.90;100214.00;;;;4987372;27;123178;-66
2023/09/13 07:31:57;;;;;;;5.25;3.28;;;21.70;99.90;22.20;100215.00;;;;4986879;27;108865;-66
2023/09/13 07:34:23;;;;;;;4.22;3.33;;;21.90;99.90;22.40;100209.00;;;;4990682;27;93777;-67
2023/09/13 07:36:48;;;;;;;3.80;2.70;;;22.20;99.90;22.80;100214.00;;;;4989367;27;122301;-65
2023/09/13 07:39:14;;;;;;;8.63;3.42;;;22.50;99.90;23.10;100213.00;;;;4988979;27;103606;-64
2023/09/13 07:41:39;;;;;;;7.38;3.22;;;22.90;99.90;23.20;100216.00;;;;4984478;28;110460;-65
2023/09/13 07:44:05;;;;;;;6.45;3.00;;;23.70;99.90;23.20;100217.00;;;;4979208;27;109177;-66
2023/09/13 07:46:31;;;;;;;5.60;3.03;;;23.10;99.90;23.20;100216.00;;;;4987503;27;115374;-64
2023/09/13 07:48:57;;;;;;;3.78;2.78;;;23.10;99.90;23.20;100226.00;;;;4992443;27;122627;-64
2023/09/13 07:51:22;;;;;;;3.33;2.78;;;23.10;99.90;23.20;100222.00;;;;4988889;27;109769;-65
2023/09/13 07:53:48;;;;;;;4.65;2.33;;;23.10;99.90;23.20;100227.00;;;;4987012;28;108605;-65
2023/09/13 07:56:14;;;;;;;6.10;2.22;;;23.10;99.90;23.20;100228.00;;;;4988636;27;119775;-66
2023/09/13 07:58:40;;;;;;;6.75;1.50;;;23.10;99.90;23.20;100241.00;;;;4990074;28;93455;-64
2023/09/13 08:01:05;;;;;;;2.65;1.30;;;23.10;99.90;23.30;100243.00;;;;4986605;28;103334;-64
2023/09/13 08:03:33;;;;;;;1.52;1.33;;;23.20;99.90;23.50;100251.00;;;;4986141;28;107488;-64
2023/09/13 08:05:59;;;;;;;3.13;2.05;;;23.30;99.90;23.70;100264.00;;;;4984864;28;124580;-65
2023/09/13 08:08:25;;;;;;;3.33;1.30;;;23.50;99.90;23.80;100248.00;;;;4968536;28;94385;-66
2023/09/13 08:10:54;;;;;;;1.23;1.13;;;23.60;99.90;23.90;100252.00;;;;4989064;27;93001;-65
2023/09/13 08:13:22;;;;;;;2.17;0.80;;;23.80;99.90;24.10;100251.00;;;;4982432;27;106740;-65
2023/09/13 08:15:51;;;;;;;1.35;0.82;;;23.90;99.90;24.30;100257.00;;;;4984385;27;93362;-66
2023/09/13 08:18:17;;;;;;;1.13;0.93;;;24.10;99.90;24.60;100260.00;;;;4972924;28;93351;-66
2023/09/13 08:20:43;;;;;;;1.05;0.95;;;24.30;99.90;24.70;100268.00;;;;4986743;27;95651;-66
2023/09/13 08:23:08;;;;;;;3.05;1.48;;;24.50;99.90;24.80;100266.00;;;;4983683;27;109323;-66
2023/09/13 08:25:34;;;;;;;1.05;1.00;;;24.70;99.70;24.80;100276.00;;;;4980313;27;100576;-66
2023/09/13 08:28:00;;;;;;;1.05;0.80;;;24.60;98.90;24.60;100275.00;;;;4989918;28;121669;-66
2023/09/13 08:30:25;;;;;;;2.05;1.08;;;24.60;98.70;24.40;100276.00;;;;4985303;28;110512;-67
2023/09/13 08:32:51;;;;;;;2.35;1.60;;;24.40;98.50;24.30;100269.00;;;;4990566;27;107633;-65
2023/09/13 08:35:17;;;;;;;1.45;1.20;;;24.30;98.50;24.10;100275.00;;;;4969967;28;121792;-65
2023/09/13 08:37:42;;;;;;;1.33;0.95;;;24.10;98.50;23.90;100265.00;;;;4986332;27;122079;-67
2023/09/13 08:40:10;;;;;;;0.88;0.82;;;23.90;98.30;23.80;100276.00;;;;4981411;28;95757;-66
2023/09/13 08:42:37;;;;;;;1.58;1.48;;;23.70;98.60;23.60;100270.00;;;;4981764;28;99484;-67
2023/09/13 08:45:03;;;;;;;1.63;1.17;;;23.60;98.90;23.50;100270.00;;;;4987608;28;122639;-66
2023/09/13 08:47:31;;;;;;;1.27;0.98;;;23.40;99.10;23.40;100274.00;;;;4993607;27;92714;-66
2023/09/13 08:50:00;;;;;;;1.80;1.30;;;23.30;99.30;23.30;100279.00;;;;4990223;27;93103;-67
2023/09/13 08:52:27;;;;;;;0.80;0.77;;;23.20;99.50;23.30;100281.00;;;;4987709;27;109126;-66
2023/09/13 08:54:56;;;;;;;1.55;1.23;;;23.20;99.60;23.50;100280.00;;;;4970623;28;95198;-67
2023/09/13 08:57:24;;;;;;;1.83;0.95;;;23.30;99.70;23.70;100285.00;;;;4970381;28;94381;-66
2023/09/13 08:59:50;;;;;;;1.25;1.15;;;23.40;99.20;23.70;100288.00;;;;4990973;27;101179;-67
2023/09/13 09:02:18;;;;;;;2.55;1.40;;;23.50;98.70;23.70;100288.00;;;;4988082;27;109454;-67
2023/09/13 09:04:47;;;;;;;1.10;0.93;;;23.50;98.50;23.60;100292.00;;;;4977914;27;92969;-67
2023/09/13 09:07:14;;;;;;;1.60;1.15;;;23.50;98.70;23.60;100296.00;;;;4985245;28;122547;-66
2023/09/13 09:09:40;;;;;;;1.95;1.17;;;23.40;98.70;23.50;100290.00;;;;4969580;28;101913;-67
2023/09/13 09:12:09;;;;;;;1.40;1.30;;;23.40;98.90;23.50;100297.00;;;;4970927;28;108366;-65
2023/09/13 09:14:36;;;;;;;0.68;0.57;;;23.30;99.00;23.50;100301.00;;;;4988230;28;118451;-66
2023/09/13 09:17:02;;;;;;;0.77;0.77;;;23.30;99.00;23.50;100306.00;;;;4969076;28;123328;-66
2023/09/13 09:19:29;;;;;;;2.17;1.52;;;23.30;99.20;23.60;100305.00;;;;4967683;27;101135;-66
2023/09/13 09:21:58;;;;;;;4.07;0.90;;;23.30;99.20;23.70;100303.00;;;;4972106;28;93010;-67
2023/09/13 09:24:24;;;;;;;2.22;0.93;;;23.40;99.30;23.80;100302.00;;;;4991050;27;94693;-66
2023/09/13 09:26:50;;;;;;;1.50;0.95;;;23.50;99.30;24.10;100302.00;;;;4986587;27;117330;-64
2023/09/13 09:29:18;;;;;;;2.53;1.55;;;23.70;99.10;24.40;100309.00;;;;4990780;27;94947;-67
2023/09/13 09:31:44;;;;;;;2.00;1.27;;;24.00;98.90;24.70;100301.00;;;;4988523;27;110002;-66
2023/09/13 09:34:11;;;;;;;1.40;1.30;;;24.30;98.20;24.80;100295.00;;;;4990287;28;110822;-66
2023/09/13 09:36:42;;;;;;;5.70;1.65;;;24.50;97.50;25.00;100299.00;;;;4993756;28;93832;-66
2023/09/13 09:39:08;;;;;;;3.05;1.33;;;24.60;97.00;25.20;100292.00;;;;4987736;27;92922;-66
2023/09/13 09:41:35;;;;;;;2.63;1.45;;;24.80;96.70;25.40;100305.00;;;;4990620;27;94080;-66
2023/09/13 09:44:05;;;;;;;2.42;1.63;;;25.00;96.30;25.50;100317.00;;;;4991370;27;95069;-66
2023/09/13 09:46:32;;;;;;;1.38;1.15;;;25.20;95.90;25.70;100314.00;;;;4984033;27;94524;-65
2023/09/13 09:49:00;;;;;;;1.20;1.10;;;25.40;95.30;25.70;100315.00;;;;4992964;27;93051;-66
2023/09/13 09:51:28;;;;;;;1.55;1.25;;;25.40;95.00;25.70;100331.00;;;;4992805;27;92893;-65
2023/09/13 09:53:55;;;;;;;2.45;1.20;;;25.40;94.70;25.70;100322.00;;;;4981705;27;94817;-66
2023/09/13 09:56:22;;;;;;;1.67;1.40;;;25.40;94.80;25.70;100324.00;;;;4977402;28;93659;-67
2023/09/13 09:58:48;;;;;;;4.70;1.42;;;25.40;94.80;25.60;100331.00;;;;4971417;28;92803;-67
2023/09/13 10:01:17;;;;;;;1.60;1.25;;;25.40;94.80;25.70;100319.00;;;;4988023;28;98727;-67
2023/09/13 10:03:43;;;;;;;0.98;0.98;;;25.40;94.90;25.60;100316.00;;;;4968482;28;93332;-66
2023/09/13 10:06:12;;;;;;;3.58;0.98;;;25.40;94.90;25.60;100325.00;;;;4987931;28;95935;-67
2023/09/13 10:08:48;;;;;;;2.85;0.70;;;25.40;94.70;25.40;100335.00;;;;4992124;27;96769;-66
2023/09/13 10:11:20;;;;;;;2.42;1.15;;;25.30;94.30;25.30;100335.00;;;;4975349;28;93546;-65
2023/09/13 10:13:47;;;;;;;2.55;1.08;;;25.10;94.40;25.30;100334.00;;;;4988191;28;116454;-66
2023/09/13 10:16:15;;;;;;;0.85;0.85;;;25.10;94.60;25.50;100334.00;;;;4993522;27;94608;-67
2023/09/13 10:18:49;;;;;;;1.90;0.93;;;25.20;94.60;25.80;100337.00;;;;4994997;27;100851;-66
2023/09/13 10:21:23;;;;;;;0.95;0.70;;;25.40;94.40;26.10;100345.00;;;;4991560;27;94068;-66
2023/09/13 10:23:54;;;;;;;1.20;1.10;;;25.70;93.70;26.30;100337.00;;;;4988487;27;93914;-66
2023/09/13 10:26:21;;;;;;;1.77;0.95;;;25.90;93.20;26.30;100341.00;;;;4973521;28;92896;-66
2023/09/13 10:28:49;;;;;;;1.20;1.10;;;26.00;92.90;26.20;100348.00;;;;4972937;28;93222;-66
2023/09/13 10:31:30;;;;;;;3.33;1.55;;;25.90;92.50;25.90;100351.00;;;;4967114;28;93879;-66
2023/09/13 10:34:02;;;;;;;1.55;0.77;;;25.70;92.60;25.80;100358.00;;;;4988184;27;94902;-66
2023/09/13 10:36:34;;;;;;;1.27;0.90;;;25.60;92.90;25.80;100362.00;;;;4972960;27;113684;-66
2023/09/13 10:39:30;;;;;;;1.02;0.95;;;25.60;92.70;25.80;100366.00;;;;4992955;28;92992;-67
2023/09/13 10:42:07;;;;;;;1.10;1.00;;;25.50;92.70;25.70;100359.00;;;;4991903;27;93261;-67
2023/09/13 10:44:37;;;;;;;1.00;0.90;;;25.50;92.30;25.50;100365.00;;;;4973450;28;116537;-67